createdAt,value
2022-09-02T00:00:27.841Z,23.94
2022-09-02T00:02:58.156Z,23.68
2022-09-02T00:05:35.927Z,23.55
2022-09-02T00:08:10.243Z,23.54
2022-09-02T00:10:47.908Z,23.40
2022-09-02T00:13:21.180Z,23.57
2022-09-02T00:15:52.857Z,23.62
2022-09-02T00:18:27.535Z,23.88
2022-09-02T00:20:58.918Z,23.90
2022-09-02T00:23:28.269Z,23.65
2022-09-02T00:26:01.463Z,23.48
2022-09-02T00:30:47.843Z,23.72
2022-09-02T00:32:25.492Z,23.60
2022-09-02T00:35:20.852Z,23.36
2022-09-02T00:37:53.892Z,23.04
2022-09-02T00:40:24.574Z,23.18
2022-09-02T00:42:57.592Z,23.39
2022-09-02T00:45:32.518Z,23.27
2022-09-02T00:48:07.804Z,23.16
2022-09-02T00:50:43.255Z,23.29
2022-09-02T00:53:17.898Z,23.67
2022-09-02T00:55:52.816Z,23.52
2022-09-02T00:58:37.119Z,23.13
2022-09-02T01:01:07.643Z,23.02
2022-09-02T01:03:36.127Z,23.31
2022-09-02T01:26:37.503Z,23.34
2022-09-02T01:29:07.713Z,23.30
2022-09-02T01:31:35.593Z,23.27
2022-09-02T01:34:07.258Z,23.25
2022-09-02T01:36:39.588Z,23.26
2022-09-02T01:39:10.500Z,22.97
2022-09-02T01:41:38.654Z,23.18
2022-09-02T01:44:08.324Z,23.11
2022-09-02T01:46:37.910Z,22.94
2022-09-02T01:49:06.324Z,23.16
2022-09-02T01:51:34.713Z,23.01
2022-09-02T01:54:03.010Z,22.91
2022-09-02T01:56:57.481Z,22.66
2022-09-02T02:00:12.066Z,22.69
2022-09-02T02:02:43.395Z,22.57
2022-09-02T02:08:48.807Z,22.62
2022-09-02T02:11:25.051Z,22.75
2022-09-02T02:21:18.261Z,22.50
2022-09-02T02:23:49.086Z,22.73
2022-09-02T02:26:17.406Z,22.68
2022-09-02T02:28:48.391Z,22.97
2022-09-02T02:31:16.972Z,22.87
2022-09-02T02:33:45.041Z,22.88
2022-09-02T02:36:14.153Z,22.83
2022-09-02T02:38:42.632Z,22.76
2022-09-02T02:41:10.656Z,22.87
2022-09-02T03:25:58.702Z,23.16
2022-09-02T03:28:36.147Z,23.14
2022-09-02T03:31:12.237Z,23.26
2022-09-02T03:34:08.158Z,23.43
2022-09-02T03:37:36.074Z,23.07
2022-09-02T03:40:12.120Z,23.40
2022-09-02T03:43:26.818Z,23.75
2022-09-02T03:46:04.260Z,23.68
2022-09-02T03:48:38.742Z,23.57
2022-09-02T03:51:08.335Z,23.54
2022-09-02T03:53:40.933Z,23.28
2022-09-02T03:56:15.899Z,23.15
2022-09-02T03:58:51.098Z,23.01
2022-09-02T04:01:26.975Z,22.64
2022-09-02T04:04:04.652Z,22.62
2022-09-02T04:06:36.949Z,22.59
2022-09-02T04:12:51.539Z,22.42
2022-09-02T04:15:24.255Z,22.39
2022-09-02T04:17:54.416Z,22.28
2022-09-02T04:20:28.575Z,22.43
2022-09-02T04:22:56.831Z,22.78
2022-09-02T04:25:27.698Z,22.87
2022-09-02T04:27:55.842Z,23.03
2022-09-02T04:30:25.526Z,22.87
2022-09-02T04:32:53.752Z,22.89
2022-09-02T04:35:21.522Z,22.64
2022-09-02T04:37:49.369Z,22.54
2022-09-02T04:40:17.298Z,22.84
2022-09-02T04:42:46.447Z,22.92
2022-09-02T04:45:14.751Z,22.67
2022-09-02T04:47:42.509Z,22.61
2022-09-02T04:50:14.923Z,22.50
2022-09-02T04:52:59.884Z,22.33
2022-09-02T04:55:28.387Z,22.39
2022-09-02T04:57:58.086Z,22.29
2022-09-02T05:00:26.723Z,22.40
2022-09-02T05:02:56.650Z,22.52
2022-09-02T05:05:28.188Z,22.44
2022-09-02T05:07:58.914Z,22.71
2022-09-02T05:10:29.123Z,22.61
2022-09-02T05:12:57.623Z,22.78
2022-09-02T05:15:26.804Z,22.82
2022-09-02T05:17:55.187Z,22.95
2022-09-02T05:20:24.118Z,22.68
2022-09-02T05:22:54.120Z,23.08
2022-09-02T05:25:25.260Z,23.31
2022-09-02T05:27:52.924Z,23.08
2022-09-02T05:30:20.879Z,22.84
2022-09-02T05:32:50.081Z,23.04
2022-09-02T05:35:19.063Z,23.20
2022-09-02T05:37:46.952Z,23.42
2022-09-02T05:40:15.529Z,23.20
2022-09-02T05:42:44.499Z,23.18
2022-09-02T05:45:16.437Z,23.30
2022-09-02T05:47:45.739Z,23.48
2022-09-02T05:50:15.077Z,23.43
2022-09-02T05:52:45.354Z,23.40
2022-09-02T05:55:12.891Z,23.48
2022-09-02T05:57:43.379Z,23.68
2022-09-02T06:00:13.644Z,23.78
2022-09-02T06:02:53.515Z,23.80
2022-09-02T06:05:28.972Z,23.50
2022-09-02T06:08:20.293Z,23.70
2022-09-02T06:10:47.894Z,23.83
2022-09-02T06:13:22.502Z,24.09
2022-09-02T06:15:51.932Z,24.18
2022-09-02T06:18:22.115Z,24.53
2022-09-02T06:20:53.023Z,24.85
2022-09-02T06:23:20.901Z,24.99
2022-09-02T06:25:49.864Z,25.46
2022-09-02T06:28:18.930Z,25.08
2022-09-02T06:30:51.268Z,25.32
2022-09-02T06:33:23.403Z,25.21
2022-09-02T06:35:52.138Z,25.39
2022-09-02T06:38:20.967Z,25.05
2022-09-02T06:40:53.024Z,25.07
2022-09-02T06:43:28.001Z,25.47
2022-09-02T06:46:23.057Z,25.18
2022-09-02T06:48:53.164Z,24.28
2022-09-02T06:51:29.629Z,24.33
2022-09-02T06:54:00.743Z,24.70
2022-09-02T06:56:32.259Z,24.30
2022-09-02T06:59:00.049Z,24.90
2022-09-02T07:01:43.428Z,24.50
2022-09-02T07:04:30.728Z,24.60
2022-09-02T07:06:58.598Z,24.43
2022-09-02T07:09:33.002Z,25.14
2022-09-02T07:12:11.643Z,24.74
2022-09-02T07:14:47.230Z,24.67
2022-09-02T07:17:22.793Z,24.59
2022-09-02T07:19:59.277Z,24.77
2022-09-02T07:22:28.977Z,25.11
2022-09-02T07:24:57.501Z,24.02
2022-09-02T07:27:26.975Z,24.38
2022-09-02T07:30:00.188Z,23.83
2022-09-02T07:32:30.235Z,25.88
2022-09-02T07:34:58.226Z,27.86
2022-09-02T07:37:25.787Z,28.25
2022-09-02T07:39:54.662Z,28.50
2022-09-02T07:42:22.989Z,27.96
2022-09-02T07:44:51.975Z,31.54
2022-09-02T07:47:23.602Z,29.95
2022-09-02T07:52:40.450Z,31.46
2022-09-02T07:55:14.495Z,30.98
2022-09-02T07:57:43.555Z,33.78
2022-09-02T08:00:13.708Z,30.54
2022-09-02T08:02:46.499Z,33.86
2022-09-02T08:05:19.342Z,32.01
2022-09-02T08:07:46.873Z,32.37
2022-09-02T08:10:16.774Z,31.43
2022-09-02T08:12:44.642Z,30.24
2022-09-02T08:15:13.342Z,32.81
2022-09-02T08:17:41.710Z,29.56
2022-09-02T08:20:12.671Z,32.46
2022-09-02T08:22:41.078Z,34.14
2022-09-02T08:25:09.831Z,32.97
2022-09-02T08:27:37.784Z,34.28
2022-09-02T08:30:09.963Z,33.62
2022-09-02T08:32:38.429Z,30.85
2022-09-02T08:35:08.187Z,30.54
2022-09-02T08:37:37.334Z,32.24
2022-09-02T08:40:13.070Z,33.69
2022-09-02T08:42:55.004Z,30.47
2022-09-02T08:45:37.655Z,30.75
2022-09-02T08:48:13.006Z,32.21
2022-09-02T08:50:45.491Z,29.99
2022-09-02T08:53:34.968Z,31.48
2022-09-02T08:56:05.485Z,30.71
2022-09-02T08:58:39.267Z,33.37
2022-09-02T09:01:30.559Z,32.31
2022-09-02T09:04:03.802Z,34.59
2022-09-02T09:06:49.846Z,30.82
2022-09-02T09:09:29.206Z,34.96
2022-09-02T09:12:10.539Z,35.89
2022-09-02T09:14:50.121Z,33.67
2022-09-02T09:17:32.695Z,31.35
2022-09-02T09:20:06.679Z,32.79
2022-09-02T09:22:39.254Z,36.94
2022-09-02T09:25:14.218Z,34.78
2022-09-02T09:27:42.738Z,32.96
2022-09-02T09:30:14.899Z,34.37
2022-09-02T09:32:54.879Z,33.23
2022-09-02T09:35:24.840Z,33.30
2022-09-02T09:37:55.694Z,33.21
2022-09-02T09:40:26.801Z,34.18
2022-09-02T09:43:14.612Z,32.94
2022-09-02T09:45:49.264Z,31.63
2022-09-02T09:48:16.736Z,34.75
2022-09-02T09:50:49.705Z,34.99
2022-09-02T09:53:22.278Z,34.80
2022-09-02T09:56:05.912Z,34.57
2022-09-02T09:58:42.417Z,34.57
2022-09-02T10:01:12.762Z,34.57
2022-09-02T10:03:49.923Z,34.29
2022-09-02T10:06:24.486Z,34.08
2022-09-02T10:09:03.471Z,33.47
2022-09-02T10:11:33.634Z,32.42
2022-09-02T10:14:07.057Z,30.33
2022-09-02T10:16:58.284Z,31.21
2022-09-02T10:19:42.175Z,32.70
2022-09-02T10:22:38.508Z,32.04
2022-09-02T10:25:27.422Z,31.90
2022-09-02T10:28:12.834Z,32.93
2022-09-02T10:30:55.089Z,33.00
2022-09-02T10:33:59.794Z,33.23
2022-09-02T10:36:46.218Z,32.19
2022-09-02T10:39:47.464Z,31.55
2022-09-02T10:42:39.890Z,32.00
2022-09-02T10:45:24.280Z,30.96
2022-09-02T10:48:15.095Z,32.13
2022-09-02T10:50:46.856Z,31.94
2022-09-02T10:53:27.133Z,31.20
2022-09-02T10:55:59.348Z,30.46
2022-09-02T10:58:40.734Z,31.63
2022-09-02T11:01:12.199Z,31.07
2022-09-02T11:04:02.453Z,32.29
2022-09-02T11:06:45.988Z,32.56
2022-09-02T11:09:40.617Z,32.37
2022-09-02T11:12:16.750Z,32.27
2022-09-02T11:15:06.239Z,31.82
2022-09-02T11:17:53.579Z,31.80
2022-09-02T11:20:38.853Z,32.32
2022-09-02T11:23:41.331Z,30.96
2022-09-02T11:26:38.368Z,31.65
2022-09-02T11:29:22.748Z,31.71
2022-09-02T11:32:17.261Z,31.08
2022-09-02T11:34:51.202Z,31.33
2022-09-02T11:37:39.071Z,31.25
2022-09-02T11:40:33.188Z,30.76
2022-09-02T11:43:03.754Z,30.18
2022-09-02T11:45:57.159Z,30.14
2022-09-02T11:48:46.666Z,30.36
2022-09-02T11:51:43.758Z,30.75
2022-09-02T11:54:15.981Z,30.45
2022-09-02T11:56:50.693Z,30.70
2022-09-02T11:59:21.991Z,31.02
2022-09-02T12:01:56.826Z,29.84
2022-09-02T12:07:15.808Z,31.34
2022-09-02T12:12:36.373Z,30.41
2022-09-02T12:15:07.332Z,31.00
2022-09-02T12:17:40.576Z,30.47
2022-09-02T12:20:38.508Z,30.49
2022-09-02T12:23:09.143Z,30.72
2022-09-02T12:25:43.151Z,30.96
2022-09-02T12:28:25.464Z,31.13
2022-09-02T12:31:03.018Z,31.10
2022-09-02T12:33:35.936Z,30.87
2022-09-02T12:36:08.585Z,31.44
2022-09-02T12:38:39.304Z,30.79
2022-09-02T12:41:24.369Z,31.13
2022-09-02T12:44:02.377Z,30.97
2022-09-02T12:46:47.380Z,30.81
2022-09-02T12:49:45.732Z,30.59
2022-09-02T12:52:36.232Z,30.44
2022-09-02T12:55:05.434Z,29.94
2022-09-02T12:57:44.628Z,29.12
2022-09-02T13:00:31.402Z,29.84
2022-09-02T13:03:25.709Z,30.20
2022-09-02T13:06:05.727Z,30.38
2022-09-02T13:08:53.621Z,30.40
2022-09-02T13:12:00.744Z,30.28
2022-09-02T13:15:03.145Z,30.57
2022-09-02T13:17:47.487Z,30.49
2022-09-02T13:20:56.459Z,30.60
2022-09-02T13:23:44.960Z,29.99
2022-09-02T13:26:58.828Z,30.65
2022-09-02T13:30:02.431Z,29.44
2022-09-02T13:32:31.369Z,29.64
2022-09-02T13:35:08.375Z,30.11
2022-09-02T13:37:38.479Z,30.22
2022-09-02T13:40:23.653Z,29.79
2022-09-02T13:42:55.497Z,30.30
2022-09-02T13:45:25.783Z,30.14
2022-09-02T13:47:57.278Z,30.02
2022-09-02T13:50:27.865Z,29.72
2022-09-02T13:55:53.698Z,29.63
2022-09-02T13:58:46.007Z,29.98
2022-09-02T14:01:37.190Z,30.35
2022-09-02T14:04:11.427Z,30.03
2022-09-02T14:06:42.253Z,29.88
2022-09-02T14:09:21.221Z,30.12
2022-09-02T14:11:49.589Z,29.78
2022-09-02T14:14:22.013Z,29.81
2022-09-02T14:16:49.381Z,30.09
2022-09-02T14:19:16.730Z,29.67
2022-09-02T14:21:52.743Z,29.79
2022-09-02T14:24:25.649Z,29.97
2022-09-02T14:26:57.851Z,29.94
2022-09-02T14:29:28.336Z,30.18
2022-09-02T14:32:20.546Z,29.72
2022-09-02T14:34:49.605Z,29.95
2022-09-02T14:37:26.318Z,29.84
2022-09-02T14:39:53.726Z,30.01
2022-09-02T14:42:21.367Z,30.00
2022-09-02T14:44:49.185Z,30.08
2022-09-02T14:47:22.763Z,29.87
2022-09-02T14:49:53.564Z,30.05
2022-09-02T14:52:25.456Z,29.58
2022-09-02T14:54:58.035Z,29.97
2022-09-02T14:57:38.996Z,29.93
2022-09-02T15:00:10.508Z,29.61
2022-09-02T15:02:42.176Z,30.05
2022-09-02T15:05:14.674Z,29.99
2022-09-02T15:07:43.028Z,29.78
2022-09-02T15:10:10.421Z,29.74
2022-09-02T15:12:49.884Z,29.93
2022-09-02T15:15:17.558Z,29.84
2022-09-02T15:17:44.963Z,29.98
2022-09-02T15:20:12.624Z,29.85
2022-09-02T15:22:40.190Z,29.53
2022-09-02T15:25:08.116Z,29.78
2022-09-02T15:27:41.378Z,29.67
2022-09-02T15:30:09.536Z,29.55
2022-09-02T15:32:38.048Z,29.51
2022-09-02T15:35:11.454Z,29.50
2022-09-02T15:37:39.128Z,29.21
2022-09-02T15:40:08.402Z,29.30
2022-09-02T15:42:36.949Z,29.25
2022-09-02T15:45:11.046Z,29.11
2022-09-02T15:47:38.685Z,29.29
2022-09-02T15:50:06.616Z,29.58
2022-09-02T15:52:37.495Z,29.15
2022-09-02T15:55:05.423Z,29.10
2022-09-02T15:57:33.073Z,28.90
2022-09-02T16:00:00.509Z,28.92
2022-09-02T16:02:27.974Z,28.98
2022-09-02T16:04:58.774Z,28.60
2022-09-02T16:07:26.291Z,28.66
2022-09-02T16:09:53.729Z,28.83
2022-09-02T16:12:21.099Z,28.72
2022-09-02T16:14:51.746Z,28.13
2022-09-02T16:17:19.226Z,28.49
2022-09-02T16:19:48.826Z,28.46
2022-09-02T16:22:16.171Z,28.16
2022-09-02T16:24:43.736Z,28.23
2022-09-02T16:27:11.229Z,28.21
2022-09-02T16:29:39.739Z,28.07
2022-09-02T16:32:24.607Z,28.02
2022-09-02T16:34:55.837Z,27.84
2022-09-02T16:37:23.251Z,27.74
2022-09-02T16:39:51.683Z,27.80
2022-09-02T16:42:21.966Z,27.96
2022-09-02T16:44:52.687Z,27.88
2022-09-02T16:47:20.492Z,27.71
2022-09-02T16:49:48.166Z,27.75
2022-09-02T16:52:15.732Z,27.59
2022-09-02T16:54:45.697Z,27.50
2022-09-02T16:57:13.227Z,27.61
2022-09-02T16:59:40.645Z,27.47
2022-09-02T17:02:08.079Z,27.57
2022-09-02T17:04:35.681Z,27.45
2022-09-02T17:07:03.860Z,27.49
2022-09-02T17:09:31.504Z,27.23
2022-09-02T17:12:01.949Z,27.37
2022-09-02T17:14:29.511Z,27.20
2022-09-02T17:16:56.982Z,27.00
2022-09-02T17:19:28.600Z,26.98
2022-09-02T17:21:59.819Z,26.61
2022-09-02T17:24:31.685Z,27.03
2022-09-02T17:27:00.614Z,26.85
2022-09-02T17:29:48.936Z,26.86
2022-09-02T17:32:18.694Z,26.68
2022-09-02T17:34:48.806Z,26.34
2022-09-02T17:37:16.199Z,26.29
2022-09-02T17:39:43.778Z,26.41
2022-09-02T17:42:12.365Z,26.35
2022-09-02T17:44:42.976Z,26.02
2022-09-02T17:47:14.469Z,25.90
2022-09-02T17:49:44.423Z,25.56
2022-09-02T17:52:21.540Z,25.60
2022-09-02T17:54:51.545Z,25.57
2022-09-02T17:57:23.710Z,25.54
2022-09-02T18:00:13.916Z,25.44
2022-09-02T18:02:55.508Z,25.48
2022-09-02T18:05:29.159Z,25.41
2022-09-02T18:08:01.863Z,25.47
2022-09-02T18:10:39.810Z,25.50
2022-09-02T18:13:13.658Z,25.45
2022-09-02T18:15:53.015Z,25.76
2022-09-02T18:18:21.661Z,25.33
2022-09-02T18:20:56.526Z,25.26
2022-09-02T18:23:24.303Z,25.31
2022-09-02T18:26:25.644Z,25.34
2022-09-02T18:29:17.120Z,25.34
2022-09-02T18:32:08.717Z,25.25
2022-09-02T18:35:03.916Z,25.40
2022-09-02T18:37:41.954Z,25.32
2022-09-02T18:40:44.285Z,25.19
2022-09-02T18:43:29.998Z,24.85
2022-09-02T18:46:03.682Z,24.89
2022-09-02T18:48:39.109Z,25.09
2022-09-02T18:51:29.815Z,25.19
2022-09-02T18:54:25.298Z,25.15
2022-09-02T18:57:00.839Z,24.98
2022-09-02T18:59:38.440Z,25.06
2022-09-02T19:02:19.253Z,24.99
2022-09-02T19:04:47.138Z,24.90
2022-09-02T19:07:38.976Z,25.13
2022-09-02T19:10:09.148Z,24.99
2022-09-02T19:12:39.261Z,25.01
2022-09-02T19:15:13.068Z,24.80
2022-09-02T19:17:41.548Z,25.03
2022-09-02T19:20:09.851Z,25.30
2022-09-02T19:22:41.603Z,25.42
2022-09-02T19:25:21.616Z,25.47
2022-09-02T19:27:50.810Z,25.30
2022-09-02T19:30:21.912Z,25.41
2022-09-02T19:32:52.827Z,25.18
2022-09-02T19:35:23.925Z,25.34
2022-09-02T19:37:54.075Z,25.23
2022-09-02T19:40:33.296Z,24.94
2022-09-02T19:43:03.743Z,24.81
2022-09-02T19:45:36.266Z,24.58
2022-09-02T19:48:07.418Z,24.47
2022-09-02T19:50:40.964Z,24.47
2022-09-02T19:53:11.221Z,24.25
2022-09-02T19:55:38.698Z,24.28
2022-09-02T19:58:06.310Z,23.97
2022-09-02T20:00:33.944Z,24.35
2022-09-02T20:03:03.391Z,24.39
2022-09-02T20:05:31.377Z,24.39
2022-09-02T20:07:58.967Z,24.69
2022-09-02T20:10:27.944Z,24.24
2022-09-02T20:12:59.473Z,23.95
2022-09-02T20:15:26.933Z,24.28
2022-09-02T20:18:09.242Z,24.08
2022-09-02T20:20:36.773Z,23.86
2022-09-02T20:23:04.350Z,23.60
2022-09-02T20:25:40.649Z,23.62
2022-09-02T20:28:28.476Z,23.75
2022-09-02T20:31:25.392Z,23.61
2022-09-02T20:34:28.692Z,23.56
2022-09-02T20:37:09.627Z,23.67
2022-09-02T20:39:49.658Z,23.58
2022-09-02T20:42:43.077Z,23.72
2022-09-02T20:45:19.837Z,23.81
2022-09-02T20:47:59.224Z,23.67
2022-09-02T20:50:29.473Z,23.69
2022-09-02T20:53:38.084Z,23.56
2022-09-02T20:56:16.513Z,23.90
2022-09-02T20:58:55.801Z,23.79
2022-09-02T21:01:29.274Z,23.68
2022-09-02T21:04:24.400Z,23.55
2022-09-02T21:07:08.519Z,23.60
2022-09-02T21:10:10.227Z,23.60
2022-09-02T21:12:54.612Z,23.82
2022-09-02T21:15:47.882Z,23.82
2022-09-02T21:18:30.021Z,23.70
2022-09-02T21:21:09.568Z,23.74
2022-09-02T21:23:53.117Z,23.71
2022-09-02T21:26:39.154Z,23.51
2022-09-02T21:29:26.001Z,23.56
2022-09-02T21:32:30.963Z,23.42
2022-09-02T21:35:06.803Z,23.44
2022-09-02T21:37:39.328Z,23.56
2022-09-02T21:40:12.237Z,23.73
2022-09-02T21:42:54.557Z,23.69
2022-09-02T21:45:28.000Z,23.66
2022-09-02T21:48:15.764Z,23.39
2022-09-02T21:51:01.790Z,23.55
2022-09-02T21:53:46.345Z,23.76
2022-09-02T21:56:47.191Z,23.72
2022-09-02T21:59:46.889Z,23.71
2022-09-02T22:02:28.077Z,23.79
2022-09-02T22:05:15.714Z,23.29
2022-09-02T22:08:11.161Z,23.35
2022-09-02T22:11:05.951Z,23.05
2022-09-02T22:13:34.052Z,23.03
2022-09-02T22:16:32.789Z,23.02
2022-09-02T22:19:02.698Z,23.40
2022-09-02T22:21:49.328Z,22.94
2022-09-02T22:24:29.782Z,23.14
2022-09-02T22:27:29.717Z,22.71
2022-09-02T22:30:17.940Z,23.03
2022-09-02T22:32:50.760Z,23.15
2022-09-02T22:35:45.304Z,22.53
2022-09-02T22:38:29.210Z,22.09
2022-09-02T22:41:34.794Z,22.76
2022-09-02T22:44:12.500Z,22.48
2022-09-02T22:47:23.156Z,22.96
2022-09-02T22:50:14.071Z,22.81
2022-09-02T22:52:57.456Z,22.05
2022-09-02T22:55:50.589Z,21.32
2022-09-02T22:59:06.579Z,21.74
2022-09-02T23:01:45.647Z,22.08
2022-09-02T23:04:48.356Z,22.06
2022-09-02T23:07:15.733Z,22.12
2022-09-02T23:09:44.152Z,22.09
2022-09-02T23:12:25.200Z,21.96
2022-09-02T23:15:04.304Z,21.40
2022-09-02T23:18:07.958Z,21.27
2022-09-02T23:20:41.462Z,21.65
2022-09-02T23:23:38.862Z,22.05
2022-09-02T23:26:16.761Z,21.82
2022-09-02T23:29:10.334Z,21.91
2022-09-02T23:31:47.485Z,21.73
2022-09-02T23:34:28.164Z,21.64
2022-09-02T23:37:04.940Z,21.24
2022-09-02T23:40:08.853Z,20.92
2022-09-02T23:42:39.042Z,21.50
2022-09-02T23:45:27.083Z,21.70
2022-09-02T23:48:15.628Z,21.73
2022-09-02T23:50:54.888Z,21.72
2022-09-02T23:53:33.902Z,21.83
2022-09-02T23:56:09.130Z,21.93
2022-09-02T23:59:00.806Z,21.92
